Fairfield, IL

8:12 AM CDT on August 24, 2016 (GMT -0500)
Uptown | | Change Station
Active Advisory: Flood Warning

Elev 441 ft 38.38 °N, 88.36 °W | Updated 2 minutes ago

Scattered Clouds
Scattered Clouds
75.7 °F
Feels Like 75 °F
N
4.0
Wind Variable Wind from SSW
Gusts 4.0 mph

Today
High -- | Low -- °F
--% Chance of Precip.
Yesterday
High -- | Low -- °F
Precip. -- in
Pressure 30.11 in
Visibility 10.0 miles
Clouds Scattered Clouds 11000 ft
Heat Index 75 °F
Dew Point 73 °F
Humidity 91%
Rainfall 0.00 in
Snow Depth Not available.
6:16 AM 7:34 PM
Waning Gibbous, 57% visible
METAR KFWC 241255Z AUTO 18005KT 10SM SCT110 24/23 A3011 RMK AO1 T02400228
Pressure 30.11 in
Visibility 10.0 miles
Clouds Scattered Clouds 11000 ft
Heat Index 75 °F
Dew Point 73 °F
Humidity 91%
Rainfall 0.00 in
Snow Depth Not available.
6:16 AM 7:34 PM
Waning Gibbous, 57% visible
METAR KFWC 241255Z AUTO 18005KT 10SM SCT110 24/23 A3011 RMK AO1 T02400228

10-Day Weather Forecast

Almanac

Astronomy

Aug. 24, 2016 Rise Set
Actual Time
Civil Twilight
Nautical Twilight
Astronomical Twilight
Moon
Length of Visible Light
Length of Day
Tomorrow will be .
, % of the Moon is Illuminated

Today's Extremes

State Highs State Lows

Community

WunderPhotos

Upload Photos

1,934,586 photos uploaded!

WunderBlog® & News

Nearby

Air Quality

  Air Quality AQ Index Pollutant
Not available.

Snow Depth

Station Depth Elevation

Earthquake Activity

City Distance Mag. Time & Date
Minimum magnitude displayed is 2.5.

Coastal Water Temperatures

Place Temperature

Stations

Nearby Weather Stations

Station Location Temp. Windchill Dew Point Humidity Wind Precip. Elev Updated Type
                   

Watches & Warnings

Flood Warning
Issued: 9:57 PM CDT Aug. 23, 2016 – National Weather Service

The Flood Warning continues for
the Little Wabash River at Carmi
* until Saturday evening.
* At 9:30 PM Tuesday the stage was 29.3 feet.
* Flood stage is 27.0 feet.
* Minor flooding is occurring and minor flooding is forecast.
* Forecast... the river will continue to fall to below flood stage by
Saturday afternoon.


Lat... Lon 3826 8816 3801 8828 3791 8812 3793 8808
      3804 8813 3825 8802